aviador You're here:

VNKT Decoded Metar

KATHMANDU in NEPAL
Report Time2016-04-30 18:50:00
UTC Time2016-04-30 18:51:40
Flight Rules mvfr MVFR
Wind090° at 05 kt
W.Decomp.*RWY 02: 1.7 kt HW 4.7 kt RCW
W.Rank090° ranks 5
Current wind is above 090° avg. (4.1)
Visibility6000 m
Phenomena:N/A
Clouds:Few 020 Hf
Expected CloudBase > 4,400 ft AGL from Temp-Dew spread
CeilingNone
Temp17°C (ISA +11)
Dew Point06°C (49% RH)
AAT14.3°C
QNH1014 hPa
Density Alt5,735 ft
Elevation4,386 ft
Report Wrong Elevation
Raw Report
VNKT 301850Z 09005KT 6000 FEW020 17/06 Q1014 NOSIG=

Extra information for VNKT:More info

Metar Taf Metar & Taf Last 4 Metars F.Rules Stats Wind Profile Meteogram Temp Stats Airport Information Weather charts Add Link Nearby VenuesMetar ALERT Operation Metar Decoded Social comments